createdAt,value
2023-03-17T00:00:39.781Z,45.42
2023-03-17T00:01:35.295Z,46.97
2023-03-17T00:02:30.887Z,46.64
2023-03-17T00:03:26.374Z,45.81
2023-03-17T00:04:21.877Z,46.53
2023-03-17T00:05:17.406Z,46.12
2023-03-17T00:06:12.933Z,46.86
2023-03-17T00:07:08.451Z,45.81
2023-03-17T00:08:03.976Z,45.73
2023-03-17T00:08:59.513Z,46.25
2023-03-17T00:09:55.035Z,46.25
2023-03-17T00:10:50.584Z,46.35
2023-03-17T00:11:46.159Z,46.68
2023-03-17T00:12:41.714Z,47.17
2023-03-17T00:13:37.224Z,46.66
2023-03-17T00:14:32.779Z,46.56
2023-03-17T00:15:28.798Z,46.56
2023-03-17T00:16:24.356Z,47.38
2023-03-17T00:17:19.898Z,47.41
2023-03-17T00:18:15.421Z,47.41
2023-03-17T00:19:10.937Z,47.09
2023-03-17T00:20:06.955Z,47.38
2023-03-17T00:21:02.471Z,47.38
2023-03-17T00:21:58.039Z,47.28
2023-03-17T00:22:53.596Z,47.38
2023-03-17T00:23:49.136Z,47.20
2023-03-17T00:24:44.662Z,47.61
2023-03-17T00:25:40.202Z,47.61
2023-03-17T00:26:35.724Z,47.71
2023-03-17T00:27:31.306Z,47.51
2023-03-17T00:28:26.844Z,47.30
2023-03-17T00:29:22.356Z,47.30
2023-03-17T00:30:17.916Z,47.92
2023-03-17T00:31:13.578Z,47.51
2023-03-17T00:32:09.004Z,47.51
2023-03-17T00:33:04.603Z,47.61
2023-03-17T00:34:00.097Z,47.71
2023-03-17T00:34:55.619Z,47.81
2023-03-17T00:35:51.197Z,47.71
2023-03-17T00:36:46.734Z,47.81
2023-03-17T00:37:42.276Z,48.13
2023-03-17T00:38:37.837Z,47.81
2023-03-17T00:39:33.357Z,47.61
2023-03-17T00:40:29.261Z,47.92
2023-03-17T00:41:25.472Z,47.41
2023-03-17T00:42:20.991Z,47.51
2023-03-17T00:43:16.523Z,48.02
2023-03-17T00:44:13.079Z,48.02
2023-03-17T00:45:08.598Z,47.71
2023-03-17T00:46:04.146Z,47.51
2023-03-17T00:46:59.686Z,47.61
2023-03-17T00:47:55.173Z,48.02
2023-03-17T00:48:50.700Z,47.71
2023-03-17T00:49:46.223Z,47.71
2023-03-17T00:50:41.738Z,47.41
2023-03-17T00:51:37.268Z,47.71
2023-03-17T00:52:32.804Z,47.71
2023-03-17T00:53:28.317Z,47.51
2023-03-17T00:54:23.828Z,47.71
2023-03-17T00:55:19.362Z,47.61
2023-03-17T00:56:14.877Z,47.74
2023-03-17T00:57:11.412Z,48.02
2023-03-17T00:58:06.948Z,47.41
2023-03-17T00:59:02.484Z,47.81
2023-03-17T00:59:58.026Z,48.23
2023-03-17T01:00:53.628Z,47.51
2023-03-17T01:01:49.179Z,47.61
2023-03-17T01:02:44.554Z,47.51
2023-03-17T01:03:40.131Z,47.81
2023-03-17T01:04:35.626Z,47.30
2023-03-17T01:05:31.147Z,47.81
2023-03-17T01:06:26.675Z,47.92
2023-03-17T01:07:22.195Z,47.71
2023-03-17T01:08:17.721Z,47.84
2023-03-17T01:09:13.277Z,47.63
2023-03-17T01:10:08.783Z,47.53
2023-03-17T01:11:04.297Z,48.44
2023-03-17T01:11:59.833Z,47.81
2023-03-17T01:12:55.354Z,47.71
2023-03-17T01:13:50.878Z,48.56
2023-03-17T01:14:46.409Z,48.56
2023-03-17T01:15:41.965Z,47.53
2023-03-17T01:16:37.547Z,47.74
2023-03-17T01:17:32.990Z,48.46
2023-03-17T01:18:28.578Z,47.74
2023-03-17T01:19:24.056Z,47.53
2023-03-17T01:20:19.568Z,47.94
2023-03-17T01:21:15.095Z,47.63
2023-03-17T01:22:10.611Z,47.94
2023-03-17T01:23:06.137Z,48.25
2023-03-17T01:24:01.669Z,48.15
2023-03-17T01:24:57.189Z,48.15
2023-03-17T01:25:52.784Z,47.84
2023-03-17T01:26:48.274Z,48.36
2023-03-17T01:27:43.789Z,48.66
2023-03-17T01:28:39.301Z,48.46
2023-03-17T01:29:34.822Z,48.79
2023-03-17T01:30:30.586Z,48.36
2023-03-17T01:31:25.943Z,48.36
2023-03-17T01:32:21.429Z,48.46
2023-03-17T01:33:16.967Z,48.56
2023-03-17T01:34:12.483Z,48.77
2023-03-17T01:35:09.022Z,48.97
2023-03-17T01:36:04.610Z,48.87
2023-03-17T01:37:00.082Z,48.87
2023-03-17T01:37:55.598Z,48.15
2023-03-17T01:38:51.168Z,48.56
2023-03-17T01:39:47.666Z,48.36
2023-03-17T01:40:43.192Z,48.36
2023-03-17T01:41:38.720Z,48.46
2023-03-17T01:42:34.250Z,49.60
2023-03-17T01:43:29.808Z,48.58
2023-03-17T01:44:25.327Z,48.46
2023-03-17T01:45:20.884Z,49.18
2023-03-17T01:46:16.407Z,49.29
2023-03-17T01:47:11.959Z,49.10
2023-03-17T01:48:07.469Z,49.18
2023-03-17T01:49:04.034Z,49.60
2023-03-17T01:50:01.068Z,49.49
2023-03-17T01:50:56.627Z,49.08
2023-03-17T01:51:52.284Z,49.39
2023-03-17T01:52:48.310Z,49.49
2023-03-17T01:53:43.837Z,49.08
2023-03-17T01:54:39.438Z,49.29
2023-03-17T01:55:34.971Z,48.90
2023-03-17T01:56:30.511Z,49.52
2023-03-17T01:57:26.059Z,49.31
2023-03-17T01:58:21.588Z,49.00
2023-03-17T01:59:17.604Z,49.18
2023-03-17T02:00:13.155Z,49.31
2023-03-17T02:01:08.732Z,49.29
2023-03-17T02:02:04.252Z,48.97
2023-03-17T02:03:00.273Z,49.18
2023-03-17T02:03:55.811Z,49.80
2023-03-17T02:04:51.358Z,49.41
2023-03-17T02:05:46.897Z,49.62
2023-03-17T02:06:56.833Z,49.72
2023-03-17T02:07:38.466Z,49.72
2023-03-17T02:08:34.008Z,49.72
2023-03-17T02:09:29.570Z,50.24
2023-03-17T02:10:25.587Z,50.11
2023-03-17T02:11:21.137Z,49.72
2023-03-17T02:12:16.719Z,49.49
2023-03-17T02:13:12.738Z,50.34
2023-03-17T02:14:16.502Z,49.72
2023-03-17T02:15:12.058Z,49.72
2023-03-17T02:16:07.629Z,49.72
2023-03-17T02:17:03.193Z,49.62
2023-03-17T02:17:59.202Z,49.82
2023-03-17T02:18:54.769Z,49.41
2023-03-17T02:19:50.296Z,49.52
2023-03-17T02:20:46.304Z,50.24
2023-03-17T02:21:41.848Z,50.03
2023-03-17T02:22:37.407Z,49.72
2023-03-17T02:23:32.957Z,49.62
2023-03-17T02:24:28.532Z,49.72
2023-03-17T02:25:24.529Z,49.82
2023-03-17T02:26:20.549Z,49.74
2023-03-17T02:27:16.131Z,50.03
2023-03-17T02:28:12.151Z,50.24
2023-03-17T02:29:08.170Z,50.55
2023-03-17T02:30:03.731Z,50.34
2023-03-17T02:30:59.764Z,49.93
2023-03-17T02:31:55.769Z,50.34
2023-03-17T02:32:51.386Z,50.34
2023-03-17T02:33:46.882Z,49.93
2023-03-17T02:34:42.457Z,50.45
2023-03-17T02:35:38.062Z,50.37
2023-03-17T02:36:33.593Z,50.34
2023-03-17T02:37:30.160Z,50.47
2023-03-17T02:38:25.719Z,50.45
2023-03-17T02:39:21.754Z,50.47
2023-03-17T02:40:17.307Z,50.65
2023-03-17T02:41:13.430Z,50.24
2023-03-17T02:42:08.989Z,50.37
2023-03-17T02:43:04.546Z,50.34
2023-03-17T02:44:00.174Z,49.72
2023-03-17T02:44:56.197Z,50.34
2023-03-17T02:45:52.315Z,50.24
2023-03-17T02:46:47.775Z,49.72
2023-03-17T02:47:43.342Z,50.24
2023-03-17T02:48:38.891Z,50.24
2023-03-17T02:49:34.931Z,50.16
2023-03-17T02:50:30.863Z,50.16
2023-03-17T02:51:26.073Z,50.16
2023-03-17T02:52:21.602Z,50.24
2023-03-17T02:53:17.147Z,50.16
2023-03-17T02:54:12.662Z,50.47
2023-03-17T02:55:08.218Z,50.37
2023-03-17T02:56:03.820Z,50.13
2023-03-17T02:56:59.356Z,51.19
2023-03-17T02:57:54.909Z,50.78
2023-03-17T02:58:50.451Z,51.40
2023-03-17T02:59:45.990Z,50.99
2023-03-17T03:00:41.538Z,50.13
2023-03-17T03:01:37.128Z,50.24
2023-03-17T03:02:32.681Z,50.24
2023-03-17T03:03:28.183Z,50.13
2023-03-17T03:04:23.754Z,50.13
2023-03-17T03:05:19.299Z,50.65
2023-03-17T03:06:14.923Z,50.34
2023-03-17T03:07:10.913Z,50.34
2023-03-17T03:08:06.454Z,50.45
2023-03-17T03:09:02.486Z,50.78
2023-03-17T03:09:58.014Z,50.37
2023-03-17T03:10:54.055Z,50.34
2023-03-17T03:11:49.604Z,50.34
2023-03-17T03:12:45.205Z,50.16
2023-03-17T03:13:41.238Z,50.05
2023-03-17T03:14:36.805Z,50.37
2023-03-17T03:15:32.372Z,50.16
2023-03-17T03:16:27.879Z,50.26
2023-03-17T03:17:23.901Z,50.57
2023-03-17T03:18:19.464Z,50.57
2023-03-17T03:19:15.015Z,50.37
2023-03-17T03:20:10.559Z,50.16
2023-03-17T03:21:06.103Z,49.82
2023-03-17T03:22:01.667Z,50.03
2023-03-17T03:22:57.206Z,49.82
2023-03-17T03:23:52.766Z,49.82
2023-03-17T03:24:48.307Z,50.13
2023-03-17T03:25:43.856Z,49.62
2023-03-17T03:26:39.409Z,49.74
2023-03-17T03:27:34.952Z,49.72
2023-03-17T03:28:30.528Z,50.26
2023-03-17T03:29:26.543Z,49.93
2023-03-17T03:30:22.094Z,49.72
2023-03-17T03:31:17.740Z,50.13
2023-03-17T03:32:13.661Z,49.54
2023-03-17T03:33:09.185Z,50.47
2023-03-17T03:34:04.750Z,49.72
2023-03-17T03:35:00.785Z,49.43
2023-03-17T03:35:56.386Z,49.95
2023-03-17T03:36:52.381Z,49.72
2023-03-17T03:37:47.928Z,49.95
2023-03-17T03:38:43.463Z,49.41
2023-03-17T03:39:39.025Z,49.74
2023-03-17T03:40:34.602Z,50.05
2023-03-17T03:41:30.147Z,49.74
2023-03-17T03:42:25.693Z,49.95
2023-03-17T03:43:23.688Z,49.72
2023-03-17T03:44:17.264Z,49.74
2023-03-17T03:45:13.287Z,49.95
2023-03-17T03:46:08.896Z,49.74
2023-03-17T03:47:04.872Z,49.74
2023-03-17T03:48:00.438Z,49.85
2023-03-17T03:48:55.982Z,50.47
2023-03-17T03:49:51.539Z,50.26
2023-03-17T03:50:47.078Z,50.05
2023-03-17T03:51:42.645Z,50.26
2023-03-17T03:52:38.206Z,50.37
2023-03-17T03:53:33.764Z,50.26
2023-03-17T03:54:29.290Z,49.74
2023-03-17T03:55:24.840Z,49.64
2023-03-17T03:56:20.475Z,49.74
2023-03-17T03:57:16.045Z,50.37
2023-03-17T03:58:11.592Z,49.95
2023-03-17T03:59:07.133Z,49.74
2023-03-17T04:00:03.152Z,49.64
2023-03-17T04:00:59.223Z,50.05
2023-03-17T04:01:54.770Z,50.05
2023-03-17T04:02:50.436Z,49.85
2023-03-17T04:03:45.881Z,49.54
2023-03-17T04:04:41.473Z,49.74
2023-03-17T04:05:36.976Z,49.85
2023-03-17T04:06:32.515Z,49.74
2023-03-17T04:07:28.060Z,49.74
2023-03-17T04:08:23.618Z,49.74
2023-03-17T04:09:19.208Z,50.05
2023-03-17T04:10:15.175Z,49.74
2023-03-17T04:11:10.731Z,49.74
2023-03-17T04:12:06.272Z,50.26
2023-03-17T04:13:01.834Z,50.05
2023-03-17T04:13:57.371Z,49.43
2023-03-17T04:14:52.921Z,50.05
2023-03-17T04:15:48.494Z,50.37
2023-03-17T04:16:44.011Z,49.33
2023-03-17T04:17:39.564Z,49.85
2023-03-17T04:18:35.131Z,49.95
2023-03-17T04:19:30.664Z,49.95
2023-03-17T04:20:26.241Z,50.05
2023-03-17T04:21:22.290Z,53.13
2023-03-17T04:22:18.359Z,52.20
2023-03-17T04:23:14.351Z,51.58
2023-03-17T04:24:10.382Z,51.61
2023-03-17T04:25:06.449Z,51.58
2023-03-17T04:26:02.501Z,51.68
2023-03-17T04:26:58.493Z,51.28
2023-03-17T04:27:54.516Z,51.09
2023-03-17T04:28:50.070Z,50.55
2023-03-17T04:29:45.621Z,50.05
2023-03-17T04:30:41.195Z,49.64
2023-03-17T04:31:36.775Z,49.95
2023-03-17T04:32:32.357Z,49.74
2023-03-17T04:33:27.832Z,49.64
2023-03-17T04:34:23.379Z,49.74
2023-03-17T04:35:18.933Z,49.74
2023-03-17T04:36:15.041Z,50.16
2023-03-17T04:37:10.506Z,49.85
2023-03-17T04:38:06.043Z,50.05
2023-03-17T04:39:01.601Z,49.93
2023-03-17T04:39:57.122Z,50.05
2023-03-17T04:40:52.691Z,49.93
2023-03-17T04:41:48.251Z,49.85
2023-03-17T04:42:44.261Z,50.37
2023-03-17T04:43:39.799Z,50.37
2023-03-17T04:44:35.358Z,50.05
2023-03-17T04:45:30.951Z,49.74
2023-03-17T04:46:26.458Z,49.74
2023-03-17T04:47:22.026Z,49.25
2023-03-17T04:48:17.562Z,50.16
2023-03-17T04:49:13.573Z,49.74
2023-03-17T04:50:09.602Z,50.37
2023-03-17T04:51:05.629Z,50.05
2023-03-17T04:52:01.186Z,50.37
2023-03-17T04:52:56.762Z,49.85
2023-03-17T04:53:52.309Z,49.22
2023-03-17T04:54:47.849Z,49.64
2023-03-17T04:55:43.887Z,49.43
2023-03-17T04:56:39.461Z,49.46
2023-03-17T04:57:35.499Z,50.16
2023-03-17T04:58:31.395Z,49.43
2023-03-17T04:59:27.103Z,50.37
2023-03-17T05:00:22.675Z,50.08
2023-03-17T05:01:18.769Z,49.74
2023-03-17T05:02:14.770Z,49.13
2023-03-17T05:03:24.095Z,49.54
2023-03-17T05:04:05.834Z,49.85
2023-03-17T05:05:01.881Z,49.22
2023-03-17T05:05:57.483Z,50.08
2023-03-17T05:06:52.971Z,50.05
2023-03-17T05:07:48.513Z,49.74
2023-03-17T05:08:44.034Z,49.13
2023-03-17T05:09:39.595Z,49.77
2023-03-17T05:10:35.154Z,50.39
2023-03-17T05:11:30.710Z,50.18
2023-03-17T05:12:26.295Z,49.64
2023-03-17T05:13:21.822Z,49.77
2023-03-17T05:14:17.368Z,49.74
2023-03-17T05:15:12.918Z,49.15
2023-03-17T05:16:08.563Z,50.18
2023-03-17T05:17:04.014Z,49.77
2023-03-17T05:17:59.546Z,49.87
2023-03-17T05:18:55.090Z,49.66
2023-03-17T05:19:50.638Z,49.74
2023-03-17T05:20:46.682Z,49.43
2023-03-17T05:21:42.209Z,49.22
2023-03-17T05:22:37.758Z,49.13
2023-03-17T05:23:33.304Z,49.74
2023-03-17T05:24:29.316Z,49.33
2023-03-17T05:25:24.855Z,49.43
2023-03-17T05:26:20.410Z,49.54
2023-03-17T05:27:15.933Z,49.46
2023-03-17T05:28:11.518Z,49.35
2023-03-17T05:29:07.047Z,49.46
2023-03-17T05:30:03.107Z,49.46
2023-03-17T05:30:58.798Z,49.35
2023-03-17T05:31:54.191Z,49.87
2023-03-17T05:32:49.779Z,49.02
2023-03-17T05:33:45.253Z,49.13
2023-03-17T05:34:40.793Z,49.02
2023-03-17T05:35:36.411Z,49.25
2023-03-17T05:36:31.877Z,49.13
2023-03-17T05:37:27.904Z,49.33
2023-03-17T05:38:24.021Z,49.13
2023-03-17T05:39:20.091Z,49.77
2023-03-17T05:40:18.590Z,49.46
2023-03-17T05:41:14.631Z,49.13
2023-03-17T05:42:10.181Z,49.25
2023-03-17T05:43:05.718Z,49.85
2023-03-17T05:44:01.270Z,48.92
2023-03-17T05:44:56.780Z,48.92
2023-03-17T05:45:52.377Z,49.77
2023-03-17T05:46:47.844Z,49.64
2023-03-17T05:47:43.869Z,49.66
2023-03-17T05:48:39.440Z,48.92
2023-03-17T05:49:35.517Z,48.92
2023-03-17T05:50:31.982Z,49.15
2023-03-17T05:51:27.684Z,49.46
2023-03-17T05:52:24.691Z,48.40
2023-03-17T05:53:20.746Z,48.40
2023-03-17T05:54:17.906Z,48.61
2023-03-17T05:55:15.117Z,48.73
2023-03-17T05:56:12.123Z,49.54
2023-03-17T05:57:09.077Z,48.63
2023-03-17T05:58:07.629Z,49.56
2023-03-17T05:59:03.178Z,49.04
2023-03-17T05:59:58.671Z,49.35
2023-03-17T06:00:54.198Z,49.02
2023-03-17T06:01:49.731Z,49.13
2023-03-17T06:02:45.334Z,48.30
2023-03-17T06:03:40.886Z,48.61
2023-03-17T06:04:36.351Z,49.04
2023-03-17T06:05:31.910Z,48.43
2023-03-17T06:06:28.958Z,48.50
2023-03-17T06:07:25.175Z,48.53
2023-03-17T06:08:20.036Z,48.71
2023-03-17T06:09:15.572Z,48.63
2023-03-17T06:10:11.122Z,48.61
2023-03-17T06:11:06.654Z,48.82
2023-03-17T06:12:02.176Z,49.02
2023-03-17T06:12:57.722Z,48.61
2023-03-17T06:13:53.246Z,48.92
2023-03-17T06:14:48.802Z,48.92
2023-03-17T06:15:44.512Z,48.61
2023-03-17T06:16:41.565Z,48.71
2023-03-17T06:17:37.112Z,49.13
2023-03-17T06:18:32.647Z,49.13
2023-03-17T06:19:28.210Z,48.61
2023-03-17T06:20:23.758Z,48.61
2023-03-17T06:21:19.290Z,49.02
2023-03-17T06:22:14.863Z,48.82
2023-03-17T06:23:10.399Z,48.82
2023-03-17T06:24:05.980Z,48.58
2023-03-17T06:25:01.510Z,48.48
2023-03-17T06:25:57.035Z,48.79
2023-03-17T06:26:52.589Z,48.61
2023-03-17T06:27:48.455Z,48.27
2023-03-17T06:28:44.132Z,48.50
2023-03-17T06:29:39.663Z,49.02
2023-03-17T06:30:35.294Z,48.82
2023-03-17T06:31:30.825Z,49.00
2023-03-17T06:32:26.365Z,48.27
2023-03-17T06:33:21.854Z,48.50
2023-03-17T06:34:17.412Z,48.69
2023-03-17T06:35:13.568Z,49.02
2023-03-17T06:36:09.269Z,48.48
2023-03-17T06:37:04.930Z,48.82
2023-03-17T06:38:01.474Z,49.00
2023-03-17T06:38:57.017Z,48.61
2023-03-17T06:39:52.550Z,49.10
2023-03-17T06:40:48.088Z,48.48
2023-03-17T06:41:43.625Z,48.48
2023-03-17T06:42:39.164Z,48.58
2023-03-17T06:43:34.717Z,48.69
2023-03-17T06:44:30.240Z,49.10
2023-03-17T06:45:25.779Z,48.58
2023-03-17T06:46:21.390Z,48.48
2023-03-17T06:47:16.854Z,48.17
2023-03-17T06:48:12.402Z,48.17
2023-03-17T06:49:07.930Z,48.17
2023-03-17T06:50:03.543Z,47.76
2023-03-17T06:50:59.078Z,48.38
2023-03-17T06:51:54.627Z,47.86
2023-03-17T06:52:50.652Z,47.97
2023-03-17T06:53:46.206Z,47.53
2023-03-17T06:54:41.767Z,47.55
2023-03-17T06:55:37.336Z,47.97
2023-03-17T06:56:32.868Z,47.76
2023-03-17T06:57:28.945Z,47.66
2023-03-17T06:58:25.976Z,47.24
2023-03-17T06:59:21.524Z,47.86
2023-03-17T07:00:17.068Z,47.84
2023-03-17T07:01:12.639Z,47.76
2023-03-17T07:02:08.299Z,48.17
2023-03-17T07:03:03.738Z,47.66
2023-03-17T07:03:59.288Z,47.63
2023-03-17T07:04:54.916Z,47.42
2023-03-17T07:05:50.875Z,47.42
2023-03-17T07:06:46.430Z,47.32
2023-03-17T07:07:42.126Z,47.32
2023-03-17T07:08:37.679Z,47.53
2023-03-17T07:09:33.205Z,47.42
2023-03-17T07:10:28.762Z,47.42
2023-03-17T07:11:24.330Z,47.02
2023-03-17T07:12:19.891Z,46.99
2023-03-17T07:13:15.466Z,47.42
2023-03-17T07:14:11.026Z,46.29
2023-03-17T07:15:08.107Z,46.39
2023-03-17T07:16:03.775Z,46.50
2023-03-17T07:16:59.207Z,46.60
2023-03-17T07:17:55.782Z,46.70
2023-03-17T07:18:51.330Z,46.89
2023-03-17T07:19:46.882Z,46.50
2023-03-17T07:20:42.432Z,46.68
2023-03-17T07:21:39.456Z,46.47
2023-03-17T07:22:34.990Z,47.09
2023-03-17T07:23:42.644Z,45.54
2023-03-17T07:24:38.317Z,45.75
2023-03-17T07:25:34.275Z,46.17
2023-03-17T07:26:30.349Z,45.86
2023-03-17T07:27:26.463Z,46.27
2023-03-17T07:28:22.494Z,45.23
2023-03-17T07:29:18.541Z,45.63
2023-03-17T07:30:14.590Z,45.94
2023-03-17T07:31:11.694Z,45.83
2023-03-17T07:32:07.624Z,45.61
2023-03-17T07:33:04.810Z,45.50
2023-03-17T07:34:00.797Z,45.61
2023-03-17T07:34:56.816Z,45.61
2023-03-17T07:35:54.077Z,45.09
2023-03-17T07:36:49.971Z,45.29
2023-03-17T07:37:58.325Z,44.86
2023-03-17T07:38:54.383Z,45.29
2023-03-17T07:39:50.481Z,44.56
2023-03-17T07:40:47.585Z,44.37
2023-03-17T07:41:43.589Z,44.89
2023-03-17T07:42:40.442Z,44.68
2023-03-17T07:43:36.476Z,44.66
2023-03-17T07:44:32.702Z,44.78
2023-03-17T07:45:28.931Z,44.78
2023-03-17T07:46:24.827Z,44.78
2023-03-17T07:47:20.746Z,44.99
2023-03-17T07:48:16.816Z,44.68
2023-03-17T07:49:12.894Z,44.66
2023-03-17T07:50:08.913Z,44.76
2023-03-17T07:51:05.095Z,44.66
2023-03-17T07:52:01.594Z,44.35
2023-03-17T07:52:57.640Z,44.23
2023-03-17T07:53:53.679Z,44.24
2023-03-17T07:54:50.875Z,44.84
2023-03-17T07:55:46.866Z,44.23
2023-03-17T07:56:43.086Z,43.50
2023-03-17T07:57:39.170Z,44.20
2023-03-17T07:58:35.176Z,43.48
2023-03-17T07:59:31.330Z,43.99
2023-03-17T08:00:27.313Z,43.48
2023-03-17T08:01:23.293Z,43.27
2023-03-17T08:02:19.465Z,42.85
2023-03-17T08:03:15.508Z,43.05
2023-03-17T08:04:11.707Z,43.05
2023-03-17T08:05:07.526Z,43.24
2023-03-17T08:06:03.580Z,42.62
2023-03-17T08:06:59.714Z,43.13
2023-03-17T08:07:55.763Z,43.13
2023-03-17T08:08:51.823Z,43.12
2023-03-17T08:09:47.827Z,42.70
2023-03-17T08:10:43.860Z,42.49
2023-03-17T08:11:39.952Z,42.70
2023-03-17T08:12:36.097Z,42.68
2023-03-17T08:13:32.154Z,42.17
2023-03-17T08:14:28.179Z,41.14
2023-03-17T08:15:24.254Z,41.63
2023-03-17T08:16:20.380Z,42.07
2023-03-17T08:17:17.370Z,41.33
2023-03-17T08:18:13.441Z,42.05
2023-03-17T08:19:09.566Z,41.43
2023-03-17T08:20:06.630Z,41.84
2023-03-17T08:21:02.659Z,41.61
2023-03-17T08:21:59.705Z,41.22
2023-03-17T08:22:55.757Z,41.53
2023-03-17T08:23:51.829Z,41.20
2023-03-17T08:24:47.936Z,41.41
2023-03-17T08:25:44.103Z,41.20
2023-03-17T08:26:40.114Z,40.48
2023-03-17T08:27:36.112Z,41.10
2023-03-17T08:28:32.240Z,41.61
2023-03-17T08:29:28.217Z,41.19
2023-03-17T08:30:25.557Z,40.88
2023-03-17T08:31:21.394Z,41.37
2023-03-17T08:32:17.393Z,40.55
2023-03-17T08:33:21.173Z,40.63
2023-03-17T08:34:17.121Z,40.73
2023-03-17T08:35:13.158Z,41.13
2023-03-17T08:36:09.178Z,40.51
2023-03-17T08:37:05.197Z,40.19
2023-03-17T08:38:01.236Z,39.87
2023-03-17T08:38:56.779Z,40.49
2023-03-17T08:39:52.345Z,39.98
2023-03-17T08:40:48.405Z,39.57
2023-03-17T08:41:44.442Z,39.06
2023-03-17T08:42:39.981Z,39.47
2023-03-17T08:43:36.010Z,39.18
2023-03-17T08:44:32.053Z,39.48
2023-03-17T08:45:29.400Z,39.39
2023-03-17T08:46:25.144Z,39.18
2023-03-17T08:47:21.129Z,39.87
2023-03-17T08:48:17.171Z,39.48
2023-03-17T08:49:13.180Z,39.18
2023-03-17T08:50:09.221Z,39.37
2023-03-17T08:51:05.325Z,39.48
2023-03-17T08:52:01.297Z,39.78
2023-03-17T08:52:57.337Z,38.75
2023-03-17T08:53:53.381Z,39.16
2023-03-17T08:54:49.414Z,39.87
2023-03-17T08:55:45.426Z,39.26
2023-03-17T08:56:41.451Z,38.85
2023-03-17T08:57:37.470Z,39.26
2023-03-17T08:58:34.506Z,39.16
2023-03-17T08:59:30.546Z,39.06
2023-03-17T09:00:26.701Z,39.26
2023-03-17T09:01:22.670Z,38.75
2023-03-17T09:02:19.773Z,38.03
2023-03-17T09:03:14.757Z,38.44
2023-03-17T09:04:10.788Z,38.03
2023-03-17T09:05:06.839Z,38.85
2023-03-17T09:06:02.868Z,38.54
2023-03-17T09:07:03.643Z,38.84
2023-03-17T09:07:54.983Z,38.54
2023-03-17T09:08:50.467Z,37.52
2023-03-17T09:09:46.015Z,38.24
2023-03-17T09:10:44.274Z,37.71
2023-03-17T09:11:38.074Z,37.71
2023-03-17T09:12:34.361Z,38.01
2023-03-17T09:13:30.116Z,38.61
2023-03-17T09:14:25.663Z,37.99
2023-03-17T09:15:21.708Z,37.79
2023-03-17T09:16:18.756Z,37.99
2023-03-17T09:17:14.754Z,37.79
2023-03-17T09:18:10.776Z,38.31
2023-03-17T09:19:06.802Z,38.10
2023-03-17T09:20:02.373Z,37.59
2023-03-17T09:20:58.413Z,37.67
2023-03-17T09:21:54.434Z,37.57
2023-03-17T09:22:51.498Z,37.98
2023-03-17T09:23:47.526Z,38.06
2023-03-17T09:24:43.554Z,37.54
2023-03-17T09:25:39.582Z,37.72
2023-03-17T09:26:35.623Z,37.72
2023-03-17T09:27:31.655Z,36.68
2023-03-17T09:28:28.694Z,36.68
2023-03-17T09:29:24.263Z,36.87
2023-03-17T09:30:20.281Z,36.34
2023-03-17T09:31:16.303Z,36.63
2023-03-17T09:32:11.888Z,35.39
2023-03-17T09:33:07.454Z,34.67
2023-03-17T09:34:03.469Z,34.56
2023-03-17T09:34:59.492Z,34.86
2023-03-17T09:35:55.543Z,33.93
2023-03-17T09:36:51.560Z,34.23
2023-03-17T09:37:47.607Z,34.73
2023-03-17T09:38:43.667Z,34.93
2023-03-17T09:39:39.694Z,34.31
2023-03-17T09:40:35.926Z,34.29
2023-03-17T09:41:31.755Z,33.17
2023-03-17T09:42:27.775Z,32.44
2023-03-17T09:43:23.819Z,32.85
2023-03-17T09:44:19.858Z,32.43
2023-03-17T09:45:15.865Z,33.33
2023-03-17T09:46:13.229Z,32.71
2023-03-17T09:47:09.156Z,33.11
2023-03-17T09:48:04.746Z,32.07
2023-03-17T09:49:00.741Z,30.86
2023-03-17T09:49:56.790Z,31.57
2023-03-17T09:50:53.843Z,30.45
2023-03-17T09:51:49.860Z,29.93
2023-03-17T09:52:45.880Z,30.85
2023-03-17T09:53:41.918Z,29.92
2023-03-17T09:54:38.038Z,29.90
2023-03-17T09:55:34.226Z,29.90
2023-03-17T09:56:30.074Z,29.09
2023-03-17T09:57:26.119Z,28.58
2023-03-17T09:58:21.669Z,28.28
2023-03-17T09:59:17.706Z,29.19
2023-03-17T10:00:13.850Z,29.17
2023-03-17T10:01:09.887Z,28.56
2023-03-17T10:02:05.975Z,28.85
2023-03-17T10:03:01.971Z,28.63
2023-03-17T10:03:58.003Z,28.83
2023-03-17T10:04:42.671Z,28.53
2023-03-17T10:05:38.304Z,28.82
2023-03-17T10:06:33.825Z,28.63
2023-03-17T10:07:30.878Z,29.13
2023-03-17T10:08:31.745Z,28.63
2023-03-17T10:09:25.428Z,28.82
2023-03-17T10:10:18.629Z,28.42
2023-03-17T10:11:14.730Z,28.61
2023-03-17T10:12:10.287Z,27.90
2023-03-17T10:13:06.299Z,28.80
2023-03-17T10:14:01.904Z,28.19
2023-03-17T10:14:57.916Z,27.67
2023-03-17T10:15:53.974Z,28.17
2023-03-17T10:16:49.974Z,27.37
2023-03-17T10:17:45.527Z,26.35
2023-03-17T10:18:41.112Z,26.35
2023-03-17T10:19:37.137Z,26.56
2023-03-17T10:20:32.680Z,26.56
2023-03-17T10:21:28.721Z,26.66
2023-03-17T10:22:24.752Z,26.46
2023-03-17T10:23:20.788Z,26.67
2023-03-17T10:24:16.809Z,27.08
2023-03-17T10:25:12.851Z,27.08
2023-03-17T10:26:08.887Z,26.47
2023-03-17T10:27:04.902Z,26.67
2023-03-17T10:28:00.927Z,27.48
2023-03-17T10:28:56.947Z,26.98
2023-03-17T10:29:52.995Z,26.77
2023-03-17T10:30:49.014Z,26.37
2023-03-17T10:31:44.687Z,26.47
2023-03-17T10:32:40.632Z,26.68
2023-03-17T10:33:37.654Z,26.48
2023-03-17T10:34:35.413Z,26.68
2023-03-17T10:35:30.044Z,26.68
2023-03-17T10:36:25.358Z,26.98
2023-03-17T10:37:21.322Z,27.08
2023-03-17T10:38:17.350Z,26.98
2023-03-17T10:39:13.374Z,26.66
2023-03-17T10:40:09.405Z,26.07
2023-03-17T10:41:04.975Z,26.68
2023-03-17T10:42:01.069Z,27.28
2023-03-17T10:42:57.048Z,26.57
2023-03-17T10:43:53.099Z,26.56
2023-03-17T10:44:48.638Z,26.86
2023-03-17T10:45:45.336Z,26.66
2023-03-17T10:46:40.717Z,27.57
2023-03-17T10:47:36.724Z,26.45
2023-03-17T10:48:33.766Z,26.15
2023-03-17T10:49:29.788Z,26.35
2023-03-17T10:50:25.803Z,25.65
2023-03-17T10:51:21.821Z,25.43
2023-03-17T10:52:17.860Z,26.56
2023-03-17T10:53:13.921Z,26.64
2023-03-17T10:54:09.964Z,26.53
2023-03-17T10:55:07.034Z,27.05
2023-03-17T10:56:03.053Z,26.53
2023-03-17T10:56:59.265Z,26.43
2023-03-17T10:57:54.715Z,27.43
2023-03-17T10:58:50.727Z,26.64
2023-03-17T10:59:46.763Z,26.93
2023-03-17T11:00:42.377Z,27.24
2023-03-17T11:01:38.371Z,26.92
2023-03-17T11:02:34.396Z,26.42
2023-03-17T11:03:30.458Z,27.12
2023-03-17T11:04:26.498Z,26.92
2023-03-17T11:05:22.506Z,27.22
2023-03-17T11:06:18.525Z,27.01
2023-03-17T11:07:14.553Z,27.22
2023-03-17T11:08:10.612Z,26.91
2023-03-17T11:09:07.646Z,26.81
2023-03-17T11:10:03.672Z,26.32
2023-03-17T11:10:59.703Z,25.71
2023-03-17T11:11:55.742Z,26.52
2023-03-17T11:12:51.781Z,27.04
2023-03-17T11:13:47.830Z,26.64
2023-03-17T11:14:43.844Z,27.04
2023-03-17T11:15:39.872Z,26.75
2023-03-17T11:16:35.948Z,26.53
2023-03-17T11:17:32.492Z,26.02
2023-03-17T11:18:28.519Z,25.60
2023-03-17T11:19:24.556Z,26.21
2023-03-17T11:20:20.614Z,25.70
2023-03-17T11:21:16.665Z,25.89
2023-03-17T11:22:12.691Z,25.79
2023-03-17T11:23:08.736Z,25.78
2023-03-17T11:24:04.326Z,25.78
2023-03-17T11:25:00.364Z,25.68
2023-03-17T11:25:56.397Z,25.96
2023-03-17T11:26:52.408Z,25.77
2023-03-17T11:27:48.452Z,25.46
2023-03-17T11:28:44.154Z,25.67
2023-03-17T11:29:40.208Z,24.96
2023-03-17T11:30:35.751Z,25.68
2023-03-17T11:31:31.820Z,26.07
2023-03-17T11:32:27.840Z,24.77
2023-03-17T11:33:23.998Z,25.78
2023-03-17T11:34:19.980Z,26.08
2023-03-17T11:35:16.998Z,25.87
2023-03-17T11:36:13.037Z,23.96
2023-03-17T11:37:09.157Z,24.98
2023-03-17T11:38:05.337Z,25.29
2023-03-17T11:39:01.818Z,24.77
2023-03-17T11:39:57.835Z,24.98
2023-03-17T11:40:53.883Z,24.98
2023-03-17T11:41:50.245Z,24.48
2023-03-17T11:42:34.768Z,25.89
2023-03-17T11:43:30.293Z,25.78
2023-03-17T11:44:25.920Z,25.88
2023-03-17T11:45:21.557Z,25.48
2023-03-17T11:46:17.120Z,25.68
2023-03-17T11:47:12.700Z,25.48
2023-03-17T11:48:08.524Z,25.38
2023-03-17T11:48:52.729Z,25.68
2023-03-17T11:49:48.388Z,25.38
2023-03-17T11:50:43.974Z,25.68
2023-03-17T11:51:40.076Z,26.18
2023-03-17T11:52:35.675Z,25.58
2023-03-17T11:53:31.273Z,25.67
2023-03-17T11:54:26.811Z,25.77
2023-03-17T11:55:23.364Z,26.07
2023-03-17T11:56:19.402Z,25.68
2023-03-17T11:57:14.959Z,25.89
2023-03-17T11:58:10.558Z,25.99
2023-03-17T11:59:06.588Z,25.38